sensor_id;sensor_type;location;lat;lon;timestamp;P1;durP1;ratioP1;P2;durP2;ratioP2
68886;SDS011;55925;51.764;6.402;2023-08-01T00:02:09;7.35;;;3.03;;
68886;SDS011;55925;51.764;6.402;2023-08-01T00:04:35;6.88;;;3.38;;
68886;SDS011;55925;51.764;6.402;2023-08-01T00:07:01;8.00;;;3.15;;
68886;SDS011;55925;51.764;6.402;2023-08-01T00:09:27;6.30;;;2.90;;
68886;SDS011;55925;51.764;6.402;2023-08-01T00:11:53;8.68;;;3.15;;
68886;SDS011;55925;51.764;6.402;2023-08-01T00:14:20;7.18;;;3.10;;
68886;SDS011;55925;51.764;6.402;2023-08-01T00:16:49;6.25;;;2.88;;
68886;SDS011;55925;51.764;6.402;2023-08-01T00:19:15;6.60;;;2.95;;
68886;SDS011;55925;51.764;6.402;2023-08-01T00:21:41;6.38;;;3.08;;
68886;SDS011;55925;51.764;6.402;2023-08-01T00:24:07;8.23;;;3.10;;
68886;SDS011;55925;51.764;6.402;2023-08-01T00:26:33;5.18;;;2.63;;
68886;SDS011;55925;51.764;6.402;2023-08-01T00:28:59;7.20;;;3.25;;
68886;SDS011;55925;51.764;6.402;2023-08-01T00:31:25;6.45;;;2.70;;
68886;SDS011;55925;51.764;6.402;2023-08-01T00:33:51;7.00;;;3.10;;
68886;SDS011;55925;51.764;6.402;2023-08-01T00:36:17;6.10;;;2.70;;
68886;SDS011;55925;51.764;6.402;2023-08-01T00:38:43;5.78;;;2.42;;
68886;SDS011;55925;51.764;6.402;2023-08-01T00:41:09;7.68;;;3.00;;
68886;SDS011;55925;51.764;6.402;2023-08-01T00:43:35;9.55;;;3.42;;
68886;SDS011;55925;51.764;6.402;2023-08-01T00:46:03;8.00;;;2.70;;
68886;SDS011;55925;51.764;6.402;2023-08-01T00:48:29;6.97;;;2.60;;
68886;SDS011;55925;51.764;6.402;2023-08-01T00:50:59;8.38;;;3.20;;
68886;SDS011;55925;51.764;6.402;2023-08-01T00:53:25;9.07;;;3.38;;
68886;SDS011;55925;51.764;6.402;2023-08-01T00:55:52;8.73;;;3.13;;
68886;SDS011;55925;51.764;6.402;2023-08-01T00:58:18;8.00;;;3.28;;
68886;SDS011;55925;51.764;6.402;2023-08-01T01:00:45;9.02;;;3.50;;
68886;SDS011;55925;51.764;6.402;2023-08-01T01:03:11;7.47;;;3.28;;
68886;SDS011;55925;51.764;6.402;2023-08-01T01:05:38;11.02;;;3.65;;
68886;SDS011;55925;51.764;6.402;2023-08-01T01:08:05;8.38;;;3.40;;
68886;SDS011;55925;51.764;6.402;2023-08-01T01:10:31;9.52;;;3.45;;
68886;SDS011;55925;51.764;6.402;2023-08-01T01:12:57;8.82;;;3.85;;
68886;SDS011;55925;51.764;6.402;2023-08-01T01:15:24;10.07;;;3.53;;
68886;SDS011;55925;51.764;6.402;2023-08-01T01:17:51;11.18;;;4.25;;
68886;SDS011;55925;51.764;6.402;2023-08-01T01:20:22;10.27;;;4.32;;
68886;SDS011;55925;51.764;6.402;2023-08-01T01:25:15;11.95;;;4.45;;
68886;SDS011;55925;51.764;6.402;2023-08-01T01:27:41;9.88;;;4.45;;
68886;SDS011;55925;51.764;6.402;2023-08-01T01:30:10;12.52;;;4.78;;
68886;SDS011;55925;51.764;6.402;2023-08-01T01:32:36;13.70;;;5.18;;
68886;SDS011;55925;51.764;6.402;2023-08-01T01:35:03;11.75;;;5.35;;
68886;SDS011;55925;51.764;6.402;2023-08-01T01:37:29;13.93;;;5.65;;
68886;SDS011;55925;51.764;6.402;2023-08-01T01:39:55;10.90;;;5.07;;
68886;SDS011;55925;51.764;6.402;2023-08-01T01:42:21;14.52;;;6.18;;
68886;SDS011;55925;51.764;6.402;2023-08-01T01:44:47;12.57;;;5.68;;
68886;SDS011;55925;51.764;6.402;2023-08-01T01:47:13;11.95;;;5.32;;
68886;SDS011;55925;51.764;6.402;2023-08-01T01:49:39;13.02;;;5.68;;
68886;SDS011;55925;51.764;6.402;2023-08-01T01:52:05;13.52;;;5.75;;
68886;SDS011;55925;51.764;6.402;2023-08-01T01:54:31;11.32;;;5.07;;
68886;SDS011;55925;51.764;6.402;2023-08-01T01:56:57;13.70;;;5.15;;
68886;SDS011;55925;51.764;6.402;2023-08-01T01:59:23;13.98;;;5.47;;
68886;SDS011;55925;51.764;6.402;2023-08-01T02:01:49;16.25;;;5.65;;
68886;SDS011;55925;51.764;6.402;2023-08-01T02:04:15;11.30;;;5.25;;
68886;SDS011;55925;51.764;6.402;2023-08-01T02:06:41;11.70;;;4.95;;
68886;SDS011;55925;51.764;6.402;2023-08-01T02:09:08;9.88;;;5.22;;
68886;SDS011;55925;51.764;6.402;2023-08-01T02:11:34;12.55;;;4.70;;
68886;SDS011;55925;51.764;6.402;2023-08-01T02:14:00;9.77;;;4.75;;
68886;SDS011;55925;51.764;6.402;2023-08-01T02:16:28;15.15;;;4.97;;
68886;SDS011;55925;51.764;6.402;2023-08-01T02:18:54;9.93;;;4.70;;
68886;SDS011;55925;51.764;6.402;2023-08-01T02:21:19;11.98;;;4.15;;
68886;SDS011;55925;51.764;6.402;2023-08-01T02:23:46;12.20;;;4.40;;
68886;SDS011;55925;51.764;6.402;2023-08-01T02:26:12;10.43;;;4.63;;
68886;SDS011;55925;51.764;6.402;2023-08-01T02:28:38;10.52;;;4.60;;
68886;SDS011;55925;51.764;6.402;2023-08-01T02:31:04;11.43;;;4.15;;
68886;SDS011;55925;51.764;6.402;2023-08-01T02:33:30;11.57;;;3.33;;
68886;SDS011;55925;51.764;6.402;2023-08-01T02:35:56;5.75;;;2.63;;
68886;SDS011;55925;51.764;6.402;2023-08-01T02:38:22;9.10;;;3.03;;
68886;SDS011;55925;51.764;6.402;2023-08-01T02:40:48;9.10;;;3.13;;
68886;SDS011;55925;51.764;6.402;2023-08-01T02:43:14;8.43;;;2.80;;
68886;SDS011;55925;51.764;6.402;2023-08-01T02:45:41;10.95;;;4.03;;
68886;SDS011;55925;51.764;6.402;2023-08-01T02:48:07;6.78;;;3.25;;
68886;SDS011;55925;51.764;6.402;2023-08-01T02:50:33;8.55;;;3.08;;
68886;SDS011;55925;51.764;6.402;2023-08-01T02:52:59;8.55;;;3.97;;
68886;SDS011;55925;51.764;6.402;2023-08-01T02:55:25;8.40;;;3.90;;
68886;SDS011;55925;51.764;6.402;2023-08-01T02:57:51;11.40;;;4.95;;
68886;SDS011;55925;51.764;6.402;2023-08-01T03:00:17;8.52;;;4.00;;
68886;SDS011;55925;51.764;6.402;2023-08-01T03:02:43;12.25;;;4.63;;
68886;SDS011;55925;51.764;6.402;2023-08-01T03:05:09;13.93;;;5.45;;
68886;SDS011;55925;51.764;6.402;2023-08-01T03:07:35;11.85;;;6.05;;
68886;SDS011;55925;51.764;6.402;2023-08-01T03:10:02;12.45;;;6.32;;
68886;SDS011;55925;51.764;6.402;2023-08-01T03:12:28;14.05;;;6.10;;
68886;SDS011;55925;51.764;6.402;2023-08-01T03:14:54;12.18;;;5.43;;
68886;SDS011;55925;51.764;6.402;2023-08-01T03:17:20;16.60;;;6.07;;
68886;SDS011;55925;51.764;6.402;2023-08-01T03:19:46;14.70;;;6.22;;
68886;SDS011;55925;51.764;6.402;2023-08-01T03:22:12;12.95;;;5.80;;
68886;SDS011;55925;51.764;6.402;2023-08-01T03:24:38;13.70;;;5.30;;
68886;SDS011;55925;51.764;6.402;2023-08-01T03:27:04;13.00;;;6.10;;
68886;SDS011;55925;51.764;6.402;2023-08-01T03:29:30;14.18;;;6.93;;
68886;SDS011;55925;51.764;6.402;2023-08-01T03:31:56;17.13;;;7.80;;
68886;SDS011;55925;51.764;6.402;2023-08-01T03:34:22;17.40;;;7.22;;
68886;SDS011;55925;51.764;6.402;2023-08-01T03:36:48;13.85;;;6.55;;
68886;SDS011;55925;51.764;6.402;2023-08-01T03:39:14;18.55;;;7.88;;
68886;SDS011;55925;51.764;6.402;2023-08-01T03:41:40;20.10;;;8.45;;
68886;SDS011;55925;51.764;6.402;2023-08-01T03:44:06;17.15;;;7.68;;
68886;SDS011;55925;51.764;6.402;2023-08-01T03:46:32;16.63;;;7.60;;
68886;SDS011;55925;51.764;6.402;2023-08-01T03:48:58;16.13;;;6.93;;
68886;SDS011;55925;51.764;6.402;2023-08-01T03:51:24;15.57;;;7.25;;
68886;SDS011;55925;51.764;6.402;2023-08-01T03:53:50;14.20;;;7.55;;
68886;SDS011;55925;51.764;6.402;2023-08-01T03:56:16;20.23;;;7.45;;
68886;SDS011;55925;51.764;6.402;2023-08-01T03:58:42;19.10;;;7.20;;
68886;SDS011;55925;51.764;6.402;2023-08-01T04:01:08;16.00;;;7.15;;
68886;SDS011;55925;51.764;6.402;2023-08-01T04:03:34;17.70;;;7.97;;
68886;SDS011;55925;51.764;6.402;2023-08-01T04:06:00;16.58;;;7.97;;
68886;SDS011;55925;51.764;6.402;2023-08-01T04:08:26;18.85;;;8.35;;
68886;SDS011;55925;51.764;6.402;2023-08-01T04:10:52;14.70;;;6.80;;
68886;SDS011;55925;51.764;6.402;2023-08-01T04:13:18;13.07;;;6.32;;
68886;SDS011;55925;51.764;6.402;2023-08-01T04:15:44;16.83;;;6.75;;
68886;SDS011;55925;51.764;6.402;2023-08-01T04:18:10;16.67;;;7.47;;
68886;SDS011;55925;51.764;6.402;2023-08-01T04:20:36;16.00;;;7.28;;
68886;SDS011;55925;51.764;6.402;2023-08-01T04:23:02;21.13;;;7.22;;
68886;SDS011;55925;51.764;6.402;2023-08-01T04:25:28;15.35;;;6.57;;
68886;SDS011;55925;51.764;6.402;2023-08-01T04:27:54;18.55;;;8.25;;
68886;SDS011;55925;51.764;6.402;2023-08-01T04:30:20;19.67;;;8.10;;
68886;SDS011;55925;51.764;6.402;2023-08-01T04:32:46;18.45;;;7.03;;
68886;SDS011;55925;51.764;6.402;2023-08-01T04:35:12;21.35;;;7.93;;
68886;SDS011;55925;51.764;6.402;2023-08-01T04:37:38;15.65;;;7.07;;
68886;SDS011;55925;51.764;6.402;2023-08-01T04:40:04;15.25;;;6.53;;
68886;SDS011;55925;51.764;6.402;2023-08-01T04:42:31;18.70;;;7.53;;
68886;SDS011;55925;51.764;6.402;2023-08-01T04:44:57;21.27;;;7.55;;
68886;SDS011;55925;51.764;6.402;2023-08-01T04:47:23;19.73;;;8.43;;
68886;SDS011;55925;51.764;6.402;2023-08-01T04:49:49;20.92;;;7.70;;
68886;SDS011;55925;51.764;6.402;2023-08-01T04:52:15;19.23;;;7.47;;
68886;SDS011;55925;51.764;6.402;2023-08-01T04:54:41;16.98;;;8.00;;
68886;SDS011;55925;51.764;6.402;2023-08-01T04:57:07;20.38;;;8.90;;
68886;SDS011;55925;51.764;6.402;2023-08-01T04:59:33;21.92;;;7.85;;
68886;SDS011;55925;51.764;6.402;2023-08-01T05:01:59;17.17;;;7.07;;
68886;SDS011;55925;51.764;6.402;2023-08-01T05:04:25;18.95;;;8.55;;
68886;SDS011;55925;51.764;6.402;2023-08-01T05:06:51;18.23;;;7.95;;
68886;SDS011;55925;51.764;6.402;2023-08-01T05:09:17;23.98;;;8.75;;
68886;SDS011;55925;51.764;6.402;2023-08-01T05:11:43;19.85;;;8.23;;
68886;SDS011;55925;51.764;6.402;2023-08-01T05:14:09;22.48;;;8.60;;
68886;SDS011;55925;51.764;6.402;2023-08-01T05:16:35;17.27;;;7.60;;
68886;SDS011;55925;51.764;6.402;2023-08-01T05:19:01;19.80;;;7.72;;
68886;SDS011;55925;51.764;6.402;2023-08-01T05:21:27;18.50;;;7.95;;
68886;SDS011;55925;51.764;6.402;2023-08-01T05:23:53;18.88;;;8.48;;
68886;SDS011;55925;51.764;6.402;2023-08-01T05:26:19;21.48;;;8.40;;
68886;SDS011;55925;51.764;6.402;2023-08-01T05:28:45;17.98;;;8.32;;
68886;SDS011;55925;51.764;6.402;2023-08-01T05:31:11;17.83;;;7.95;;
68886;SDS011;55925;51.764;6.402;2023-08-01T05:33:37;24.45;;;8.63;;
68886;SDS011;55925;51.764;6.402;2023-08-01T05:36:03;21.58;;;8.25;;
68886;SDS011;55925;51.764;6.402;2023-08-01T05:38:30;19.08;;;8.40;;
68886;SDS011;55925;51.764;6.402;2023-08-01T05:40:56;20.90;;;8.23;;
68886;SDS011;55925;51.764;6.402;2023-08-01T05:43:22;21.33;;;8.32;;
68886;SDS011;55925;51.764;6.402;2023-08-01T05:45:48;19.65;;;8.50;;
68886;SDS011;55925;51.764;6.402;2023-08-01T05:48:14;16.00;;;7.63;;
68886;SDS011;55925;51.764;6.402;2023-08-01T05:50:40;18.42;;;7.90;;
68886;SDS011;55925;51.764;6.402;2023-08-01T05:53:06;24.55;;;8.02;;
68886;SDS011;55925;51.764;6.402;2023-08-01T05:55:33;19.27;;;7.68;;
68886;SDS011;55925;51.764;6.402;2023-08-01T05:57:59;25.40;;;8.52;;
68886;SDS011;55925;51.764;6.402;2023-08-01T06:00:25;17.98;;;7.20;;
68886;SDS011;55925;51.764;6.402;2023-08-01T06:02:51;19.85;;;8.18;;
68886;SDS011;55925;51.764;6.402;2023-08-01T06:05:17;16.85;;;7.82;;
68886;SDS011;55925;51.764;6.402;2023-08-01T06:07:43;17.38;;;7.90;;
68886;SDS011;55925;51.764;6.402;2023-08-01T06:10:09;22.45;;;8.40;;
68886;SDS011;55925;51.764;6.402;2023-08-01T06:12:35;17.80;;;8.02;;
68886;SDS011;55925;51.764;6.402;2023-08-01T06:15:01;18.70;;;7.90;;
68886;SDS011;55925;51.764;6.402;2023-08-01T06:17:27;19.85;;;8.75;;
68886;SDS011;55925;51.764;6.402;2023-08-01T06:19:53;19.10;;;8.05;;
68886;SDS011;55925;51.764;6.402;2023-08-01T06:22:20;16.70;;;7.88;;
68886;SDS011;55925;51.764;6.402;2023-08-01T06:24:46;19.05;;;7.40;;
68886;SDS011;55925;51.764;6.402;2023-08-01T06:27:12;20.35;;;8.30;;
68886;SDS011;55925;51.764;6.402;2023-08-01T06:29:40;16.92;;;7.65;;
68886;SDS011;55925;51.764;6.402;2023-08-01T06:32:06;22.90;;;9.55;;
68886;SDS011;55925;51.764;6.402;2023-08-01T06:34:32;19.13;;;8.43;;
68886;SDS011;55925;51.764;6.402;2023-08-01T06:36:58;16.75;;;7.95;;
68886;SDS011;55925;51.764;6.402;2023-08-01T06:39:24;18.48;;;8.18;;
68886;SDS011;55925;51.764;6.402;2023-08-01T06:41:50;16.60;;;7.40;;
68886;SDS011;55925;51.764;6.402;2023-08-01T06:44:16;17.02;;;7.32;;
68886;SDS011;55925;51.764;6.402;2023-08-01T06:46:42;17.70;;;6.93;;
68886;SDS011;55925;51.764;6.402;2023-08-01T06:49:08;16.05;;;7.38;;
68886;SDS011;55925;51.764;6.402;2023-08-01T06:51:34;15.35;;;6.47;;
68886;SDS011;55925;51.764;6.402;2023-08-01T06:54:00;14.00;;;5.80;;
68886;SDS011;55925;51.764;6.402;2023-08-01T06:56:26;15.95;;;6.07;;
68886;SDS011;55925;51.764;6.402;2023-08-01T06:58:52;12.68;;;5.93;;
68886;SDS011;55925;51.764;6.402;2023-08-01T07:01:18;12.00;;;5.53;;
68886;SDS011;55925;51.764;6.402;2023-08-01T07:03:44;16.40;;;6.82;;
68886;SDS011;55925;51.764;6.402;2023-08-01T07:06:10;11.13;;;5.53;;
68886;SDS011;55925;51.764;6.402;2023-08-01T07:08:37;13.52;;;6.32;;
68886;SDS011;55925;51.764;6.402;2023-08-01T07:11:02;15.02;;;7.13;;
68886;SDS011;55925;51.764;6.402;2023-08-01T07:13:28;14.70;;;6.10;;
68886;SDS011;55925;51.764;6.402;2023-08-01T07:15:54;12.30;;;6.82;;
68886;SDS011;55925;51.764;6.402;2023-08-01T07:18:20;16.77;;;7.07;;
68886;SDS011;55925;51.764;6.402;2023-08-01T07:20:46;13.57;;;5.68;;
68886;SDS011;55925;51.764;6.402;2023-08-01T07:23:13;15.18;;;6.43;;
68886;SDS011;55925;51.764;6.402;2023-08-01T07:25:38;12.13;;;5.72;;
68886;SDS011;55925;51.764;6.402;2023-08-01T07:28:04;14.05;;;5.82;;
68886;SDS011;55925;51.764;6.402;2023-08-01T07:30:31;12.32;;;5.65;;
68886;SDS011;55925;51.764;6.402;2023-08-01T07:32:56;12.15;;;5.35;;
68886;SDS011;55925;51.764;6.402;2023-08-01T07:35:22;12.55;;;5.15;;
68886;SDS011;55925;51.764;6.402;2023-08-01T07:37:48;11.73;;;5.43;;
68886;SDS011;55925;51.764;6.402;2023-08-01T07:40:14;11.25;;;5.30;;
68886;SDS011;55925;51.764;6.402;2023-08-01T07:42:40;15.57;;;5.47;;
68886;SDS011;55925;51.764;6.402;2023-08-01T07:45:07;10.77;;;4.75;;
68886;SDS011;55925;51.764;6.402;2023-08-01T07:47:33;10.07;;;4.97;;
68886;SDS011;55925;51.764;6.402;2023-08-01T07:49:59;9.57;;;4.07;;
68886;SDS011;55925;51.764;6.402;2023-08-01T07:52:25;11.27;;;4.40;;
68886;SDS011;55925;51.764;6.402;2023-08-01T07:54:51;10.48;;;4.15;;
68886;SDS011;55925;51.764;6.402;2023-08-01T07:57:18;9.63;;;4.10;;
68886;SDS011;55925;51.764;6.402;2023-08-01T07:59:44;8.73;;;4.15;;
68886;SDS011;55925;51.764;6.402;2023-08-01T08:02:10;9.13;;;3.72;;
68886;SDS011;55925;51.764;6.402;2023-08-01T08:04:36;11.38;;;3.97;;
68886;SDS011;55925;51.764;6.402;2023-08-01T08:07:02;11.00;;;4.10;;
68886;SDS011;55925;51.764;6.402;2023-08-01T08:09:28;9.90;;;4.07;;
68886;SDS011;55925;51.764;6.402;2023-08-01T08:11:54;9.57;;;3.60;;
68886;SDS011;55925;51.764;6.402;2023-08-01T08:14:22;10.13;;;3.92;;
68886;SDS011;55925;51.764;6.402;2023-08-01T08:16:48;7.88;;;3.38;;
68886;SDS011;55925;51.764;6.402;2023-08-01T08:19:15;8.55;;;3.05;;
68886;SDS011;55925;51.764;6.402;2023-08-01T08:21:41;7.43;;;3.45;;
68886;SDS011;55925;51.764;6.402;2023-08-01T08:24:07;10.10;;;3.65;;
68886;SDS011;55925;51.764;6.402;2023-08-01T08:26:33;7.82;;;3.15;;
68886;SDS011;55925;51.764;6.402;2023-08-01T08:29:02;7.63;;;2.97;;
68886;SDS011;55925;51.764;6.402;2023-08-01T08:31:30;8.57;;;2.95;;
68886;SDS011;55925;51.764;6.402;2023-08-01T08:33:56;7.28;;;2.97;;
68886;SDS011;55925;51.764;6.402;2023-08-01T08:36:22;8.55;;;3.15;;
68886;SDS011;55925;51.764;6.402;2023-08-01T08:38:48;8.23;;;2.72;;
68886;SDS011;55925;51.764;6.402;2023-08-01T08:41:16;6.78;;;2.70;;
68886;SDS011;55925;51.764;6.402;2023-08-01T08:43:45;6.28;;;2.60;;
68886;SDS011;55925;51.764;6.402;2023-08-01T08:46:14;7.82;;;2.50;;
68886;SDS011;55925;51.764;6.402;2023-08-01T08:48:41;7.40;;;2.83;;
68886;SDS011;55925;51.764;6.402;2023-08-01T08:51:07;7.43;;;2.70;;
68886;SDS011;55925;51.764;6.402;2023-08-01T08:53:33;9.07;;;3.40;;
68886;SDS011;55925;51.764;6.402;2023-08-01T08:56:01;9.00;;;3.58;;
68886;SDS011;55925;51.764;6.402;2023-08-01T08:58:28;7.10;;;3.20;;
68886;SDS011;55925;51.764;6.402;2023-08-01T09:00:56;5.50;;;2.65;;
68886;SDS011;55925;51.764;6.402;2023-08-01T09:03:22;7.18;;;2.80;;
68886;SDS011;55925;51.764;6.402;2023-08-01T09:05:50;5.68;;;2.70;;
68886;SDS011;55925;51.764;6.402;2023-08-01T09:08:20;7.68;;;3.00;;
68886;SDS011;55925;51.764;6.402;2023-08-01T09:10:47;9.38;;;3.80;;
68886;SDS011;55925;51.764;6.402;2023-08-01T09:13:13;10.63;;;3.78;;
68886;SDS011;55925;51.764;6.402;2023-08-01T09:15:40;9.63;;;3.30;;
68886;SDS011;55925;51.764;6.402;2023-08-01T09:18:07;9.13;;;3.70;;
68886;SDS011;55925;51.764;6.402;2023-08-01T09:20:40;9.82;;;4.32;;
68886;SDS011;55925;51.764;6.402;2023-08-01T09:23:08;9.68;;;3.55;;
68886;SDS011;55925;51.764;6.402;2023-08-01T09:25:34;11.38;;;4.18;;
68886;SDS011;55925;51.764;6.402;2023-08-01T09:28:00;7.40;;;2.92;;
68886;SDS011;55925;51.764;6.402;2023-08-01T09:30:26;9.25;;;2.83;;
68886;SDS011;55925;51.764;6.402;2023-08-01T09:32:56;7.30;;;2.95;;
68886;SDS011;55925;51.764;6.402;2023-08-01T09:35:23;12.80;;;3.13;;
68886;SDS011;55925;51.764;6.402;2023-08-01T09:37:49;7.18;;;3.05;;
68886;SDS011;55925;51.764;6.402;2023-08-01T09:40:15;6.47;;;2.47;;
68886;SDS011;55925;51.764;6.402;2023-08-01T09:42:42;8.32;;;3.20;;
68886;SDS011;55925;51.764;6.402;2023-08-01T09:45:12;8.27;;;3.22;;
68886;SDS011;55925;51.764;6.402;2023-08-01T09:47:42;7.65;;;2.80;;
68886;SDS011;55925;51.764;6.402;2023-08-01T09:50:08;7.40;;;2.80;;
68886;SDS011;55925;51.764;6.402;2023-08-01T09:52:35;7.82;;;2.50;;
68886;SDS011;55925;51.764;6.402;2023-08-01T09:55:01;4.85;;;2.30;;
68886;SDS011;55925;51.764;6.402;2023-08-01T09:57:29;5.10;;;2.00;;
68886;SDS011;55925;51.764;6.402;2023-08-01T09:59:58;4.75;;;1.80;;
68886;SDS011;55925;51.764;6.402;2023-08-01T10:02:26;7.18;;;1.80;;
68886;SDS011;55925;51.764;6.402;2023-08-01T10:04:52;6.15;;;1.88;;
68886;SDS011;55925;51.764;6.402;2023-08-01T10:07:20;5.63;;;1.70;;
68886;SDS011;55925;51.764;6.402;2023-08-01T10:09:49;6.35;;;2.25;;
68886;SDS011;55925;51.764;6.402;2023-08-01T10:12:17;5.68;;;2.22;;
68886;SDS011;55925;51.764;6.402;2023-08-01T10:14:43;6.28;;;2.00;;
68886;SDS011;55925;51.764;6.402;2023-08-01T10:17:10;7.38;;;2.10;;
68886;SDS011;55925;51.764;6.402;2023-08-01T10:19:36;7.70;;;2.05;;
68886;SDS011;55925;51.764;6.402;2023-08-01T10:22:03;6.03;;;1.90;;
68886;SDS011;55925;51.764;6.402;2023-08-01T10:24:30;5.22;;;2.15;;
68886;SDS011;55925;51.764;6.402;2023-08-01T10:26:56;6.47;;;2.40;;
68886;SDS011;55925;51.764;6.402;2023-08-01T10:29:33;7.22;;;1.83;;
68886;SDS011;55925;51.764;6.402;2023-08-01T10:32:00;5.22;;;1.88;;
68886;SDS011;55925;51.764;6.402;2023-08-01T10:34:26;4.72;;;1.60;;
68886;SDS011;55925;51.764;6.402;2023-08-01T10:36:55;5.40;;;1.67;;
68886;SDS011;55925;51.764;6.402;2023-08-01T10:39:22;6.53;;;1.95;;
68886;SDS011;55925;51.764;6.402;2023-08-01T10:41:56;6.13;;;1.95;;
68886;SDS011;55925;51.764;6.402;2023-08-01T10:44:23;4.25;;;1.65;;
68886;SDS011;55925;51.764;6.402;2023-08-01T10:49:15;7.22;;;2.30;;
68886;SDS011;55925;51.764;6.402;2023-08-01T10:51:42;5.95;;;2.05;;
68886;SDS011;55925;51.764;6.402;2023-08-01T10:54:17;8.05;;;1.98;;
68886;SDS011;55925;51.764;6.402;2023-08-01T10:56:45;7.13;;;1.95;;
68886;SDS011;55925;51.764;6.402;2023-08-01T10:59:12;6.38;;;1.95;;
68886;SDS011;55925;51.764;6.402;2023-08-01T11:01:45;6.05;;;1.83;;
68886;SDS011;55925;51.764;6.402;2023-08-01T11:04:17;4.57;;;1.92;;
68886;SDS011;55925;51.764;6.402;2023-08-01T11:06:44;4.97;;;1.67;;
68886;SDS011;55925;51.764;6.402;2023-08-01T11:09:18;6.35;;;1.98;;
68886;SDS011;55925;51.764;6.402;2023-08-01T11:11:44;8.95;;;1.92;;
68886;SDS011;55925;51.764;6.402;2023-08-01T11:14:11;6.68;;;2.20;;
68886;SDS011;55925;51.764;6.402;2023-08-01T11:16:38;6.22;;;1.83;;
68886;SDS011;55925;51.764;6.402;2023-08-01T11:19:04;5.50;;;2.40;;
68886;SDS011;55925;51.764;6.402;2023-08-01T11:21:30;8.30;;;1.85;;
68886;SDS011;55925;51.764;6.402;2023-08-01T11:24:00;8.15;;;2.15;;
68886;SDS011;55925;51.764;6.402;2023-08-01T11:26:31;6.47;;;1.95;;
68886;SDS011;55925;51.764;6.402;2023-08-01T11:29:01;7.53;;;1.92;;
68886;SDS011;55925;51.764;6.402;2023-08-01T11:31:27;8.30;;;2.42;;
68886;SDS011;55925;51.764;6.402;2023-08-01T11:33:56;7.82;;;2.30;;
68886;SDS011;55925;51.764;6.402;2023-08-01T11:36:24;6.70;;;1.75;;
68886;SDS011;55925;51.764;6.402;2023-08-01T11:38:50;5.93;;;1.98;;
68886;SDS011;55925;51.764;6.402;2023-08-01T11:41:16;6.05;;;2.15;;
68886;SDS011;55925;51.764;6.402;2023-08-01T11:43:42;6.40;;;1.95;;
68886;SDS011;55925;51.764;6.402;2023-08-01T11:46:09;7.88;;;2.10;;
68886;SDS011;55925;51.764;6.402;2023-08-01T11:48:35;5.78;;;1.75;;
68886;SDS011;55925;51.764;6.402;2023-08-01T11:51:01;7.00;;;2.50;;
68886;SDS011;55925;51.764;6.402;2023-08-01T11:53:28;5.05;;;1.55;;
68886;SDS011;55925;51.764;6.402;2023-08-01T11:55:55;5.88;;;2.00;;
68886;SDS011;55925;51.764;6.402;2023-08-01T11:58:28;8.20;;;2.17;;
68886;SDS011;55925;51.764;6.402;2023-08-01T12:01:04;6.10;;;2.20;;
68886;SDS011;55925;51.764;6.402;2023-08-01T12:03:31;6.88;;;1.77;;
68886;SDS011;55925;51.764;6.402;2023-08-01T12:06:05;5.55;;;1.80;;
68886;SDS011;55925;51.764;6.402;2023-08-01T12:08:36;6.07;;;1.83;;
68886;SDS011;55925;51.764;6.402;2023-08-01T12:11:02;6.88;;;1.85;;
68886;SDS011;55925;51.764;6.402;2023-08-01T12:13:28;5.63;;;1.70;;
68886;SDS011;55925;51.764;6.402;2023-08-01T12:15:56;5.40;;;1.48;;
68886;SDS011;55925;51.764;6.402;2023-08-01T12:20:48;8.82;;;2.20;;
68886;SDS011;55925;51.764;6.402;2023-08-01T12:23:14;5.30;;;1.65;;
68886;SDS011;55925;51.764;6.402;2023-08-01T12:25:40;6.40;;;1.90;;
68886;SDS011;55925;51.764;6.402;2023-08-01T12:28:06;8.50;;;1.75;;
68886;SDS011;55925;51.764;6.402;2023-08-01T12:30:32;6.18;;;1.58;;
68886;SDS011;55925;51.764;6.402;2023-08-01T12:32:58;6.20;;;1.58;;
68886;SDS011;55925;51.764;6.402;2023-08-01T12:35:25;12.65;;;2.25;;
68886;SDS011;55925;51.764;6.402;2023-08-01T12:37:52;6.35;;;1.63;;
68886;SDS011;55925;51.764;6.402;2023-08-01T12:40:18;5.68;;;1.60;;
68886;SDS011;55925;51.764;6.402;2023-08-01T12:42:44;7.03;;;1.58;;
68886;SDS011;55925;51.764;6.402;2023-08-01T12:45:10;7.75;;;1.80;;
68886;SDS011;55925;51.764;6.402;2023-08-01T12:47:36;5.32;;;1.67;;
68886;SDS011;55925;51.764;6.402;2023-08-01T12:50:03;4.93;;;1.70;;
68886;SDS011;55925;51.764;6.402;2023-08-01T12:52:29;5.82;;;1.48;;
68886;SDS011;55925;51.764;6.402;2023-08-01T12:54:55;5.28;;;1.50;;
68886;SDS011;55925;51.764;6.402;2023-08-01T12:57:21;6.20;;;1.52;;
68886;SDS011;55925;51.764;6.402;2023-08-01T12:59:48;6.55;;;1.67;;
68886;SDS011;55925;51.764;6.402;2023-08-01T13:02:14;6.40;;;1.42;;
68886;SDS011;55925;51.764;6.402;2023-08-01T13:04:40;6.65;;;1.65;;
68886;SDS011;55925;51.764;6.402;2023-08-01T13:07:06;4.60;;;1.23;;
68886;SDS011;55925;51.764;6.402;2023-08-01T13:09:32;6.75;;;1.35;;
68886;SDS011;55925;51.764;6.402;2023-08-01T13:11:59;6.15;;;1.75;;
68886;SDS011;55925;51.764;6.402;2023-08-01T13:14:25;5.18;;;1.60;;
68886;SDS011;55925;51.764;6.402;2023-08-01T13:16:51;5.28;;;1.40;;
68886;SDS011;55925;51.764;6.402;2023-08-01T13:19:17;3.78;;;1.38;;
68886;SDS011;55925;51.764;6.402;2023-08-01T13:21:43;5.32;;;1.25;;
68886;SDS011;55925;51.764;6.402;2023-08-01T13:24:09;5.00;;;2.00;;
68886;SDS011;55925;51.764;6.402;2023-08-01T13:26:35;5.25;;;1.88;;
68886;SDS011;55925;51.764;6.402;2023-08-01T13:29:02;4.70;;;1.20;;
68886;SDS011;55925;51.764;6.402;2023-08-01T13:31:28;7.22;;;1.92;;
68886;SDS011;55925;51.764;6.402;2023-08-01T13:33:57;7.05;;;1.67;;
68886;SDS011;55925;51.764;6.402;2023-08-01T13:36:23;6.40;;;1.40;;
68886;SDS011;55925;51.764;6.402;2023-08-01T13:38:50;6.28;;;1.35;;
68886;SDS011;55925;51.764;6.402;2023-08-01T13:41:16;5.32;;;1.65;;
68886;SDS011;55925;51.764;6.402;2023-08-01T13:43:42;5.72;;;1.48;;
68886;SDS011;55925;51.764;6.402;2023-08-01T13:46:17;7.80;;;1.50;;
68886;SDS011;55925;51.764;6.402;2023-08-01T13:48:44;7.40;;;1.80;;
68886;SDS011;55925;51.764;6.402;2023-08-01T13:51:10;3.78;;;1.25;;
68886;SDS011;55925;51.764;6.402;2023-08-01T13:53:37;6.43;;;1.55;;
68886;SDS011;55925;51.764;6.402;2023-08-01T13:56:06;5.65;;;1.45;;
68886;SDS011;55925;51.764;6.402;2023-08-01T13:58:32;5.13;;;1.50;;
68886;SDS011;55925;51.764;6.402;2023-08-01T14:01:04;5.50;;;1.35;;
68886;SDS011;55925;51.764;6.402;2023-08-01T14:03:32;5.07;;;1.30;;
68886;SDS011;55925;51.764;6.402;2023-08-01T14:06:08;4.45;;;2.05;;
68886;SDS011;55925;51.764;6.402;2023-08-01T14:08:34;7.57;;;2.15;;
68886;SDS011;55925;51.764;6.402;2023-08-01T14:11:04;7.38;;;1.55;;
68886;SDS011;55925;51.764;6.402;2023-08-01T14:13:30;6.38;;;1.80;;
68886;SDS011;55925;51.764;6.402;2023-08-01T14:15:57;5.47;;;1.63;;
68886;SDS011;55925;51.764;6.402;2023-08-01T14:18:23;5.18;;;1.83;;
68886;SDS011;55925;51.764;6.402;2023-08-01T14:20:49;5.20;;;1.33;;
68886;SDS011;55925;51.764;6.402;2023-08-01T14:23:15;6.97;;;1.48;;
68886;SDS011;55925;51.764;6.402;2023-08-01T14:25:41;7.28;;;1.52;;
68886;SDS011;55925;51.764;6.402;2023-08-01T14:28:07;4.63;;;1.70;;
68886;SDS011;55925;51.764;6.402;2023-08-01T14:30:33;10.77;;;2.10;;
68886;SDS011;55925;51.764;6.402;2023-08-01T14:33:08;6.40;;;1.73;;
68886;SDS011;55925;51.764;6.402;2023-08-01T14:35:35;6.78;;;1.70;;
68886;SDS011;55925;51.764;6.402;2023-08-01T14:38:01;4.78;;;1.50;;
68886;SDS011;55925;51.764;6.402;2023-08-01T14:40:28;7.25;;;1.70;;
68886;SDS011;55925;51.764;6.402;2023-08-01T14:42:54;6.18;;;1.42;;
68886;SDS011;55925;51.764;6.402;2023-08-01T14:45:21;4.80;;;1.10;;